createdAt,value
2022-08-26T00:02:54.351Z,100212.05
2022-08-26T00:07:57.208Z,100206.45
2022-08-26T00:12:59.521Z,100201.26
2022-08-26T00:18:01.858Z,100206.36
2022-08-26T00:23:04.926Z,100209.77
2022-08-26T00:28:07.870Z,100205.27
2022-08-26T00:33:13.518Z,100198.75
2022-08-26T00:38:15.891Z,100190.52
2022-08-26T00:43:18.846Z,100188.21
2022-08-26T00:48:24.245Z,100186.80
2022-08-26T00:53:30.394Z,100186.86
2022-08-26T00:58:36.689Z,100181.98
2022-08-26T01:03:40.158Z,100182.11
2022-08-26T01:08:42.566Z,100189.90
2022-08-26T01:13:46.370Z,100190.19
2022-08-26T01:18:48.777Z,100187.98
2022-08-26T01:23:51.689Z,100181.55
2022-08-26T01:29:01.209Z,100181.96
2022-08-26T01:34:03.481Z,100184.52
2022-08-26T01:39:07.230Z,100188.23
2022-08-26T01:44:13.994Z,100188.52
2022-08-26T01:49:16.360Z,100189.48
2022-08-26T01:54:20.534Z,100190.89
2022-08-26T01:59:25.510Z,100189.22
2022-08-26T02:04:32.041Z,100188.62
2022-08-26T02:09:41.093Z,100190.49
2022-08-26T02:14:49.958Z,100188.43
2022-08-26T02:19:53.674Z,100190.23
2022-08-26T02:24:57.633Z,100186.30
2022-08-26T02:30:02.599Z,100190.71
2022-08-26T02:35:05.269Z,100187.58
2022-08-26T02:40:08.902Z,100181.98
2022-08-26T02:45:11.292Z,100179.61
2022-08-26T02:50:14.563Z,100178.71
2022-08-26T02:55:19.083Z,100180.30
2022-08-26T03:00:21.585Z,100182.75
2022-08-26T03:05:26.370Z,100182.44
2022-08-26T03:10:29.208Z,100180.23
2022-08-26T03:15:32.264Z,100177.53
2022-08-26T03:20:34.971Z,100176.34
2022-08-26T03:25:37.558Z,100174.20
2022-08-26T03:30:44.936Z,100175.38
2022-08-26T03:35:50.762Z,100171.23
2022-08-26T03:40:53.274Z,100163.03
2022-08-26T03:45:55.558Z,100160.95
2022-08-26T03:50:58.700Z,100155.92
2022-08-26T03:56:01.175Z,100156.19
2022-08-26T04:01:03.991Z,100163.44
2022-08-26T04:06:06.912Z,100162.92
2022-08-26T04:11:09.240Z,100161.06
2022-08-26T04:16:13.234Z,100165.17
2022-08-26T04:21:16.607Z,100175.90
2022-08-26T04:26:20.401Z,100179.68
2022-08-26T04:31:22.772Z,100183.02
2022-08-26T04:36:25.877Z,100178.91
2022-08-26T04:41:28.597Z,100181.98
2022-08-26T04:46:34.558Z,100182.85
2022-08-26T04:51:37.607Z,100181.25
2022-08-26T04:56:42.039Z,100185.69
2022-08-26T05:01:46.783Z,100185.08
2022-08-26T05:06:50.890Z,100190.59
2022-08-26T05:11:54.490Z,100196.81
2022-08-26T05:16:56.965Z,100197.68
2022-08-26T05:21:59.521Z,100191.11
2022-08-26T05:27:02.980Z,100198.80
2022-08-26T05:32:11.247Z,100205.50
2022-08-26T05:37:13.715Z,100211.80
2022-08-26T05:42:16.082Z,100216.45
2022-08-26T05:47:18.745Z,100218.19
2022-08-26T05:52:21.844Z,100219.05
2022-08-26T05:57:29.719Z,100220.35
2022-08-26T06:02:32.094Z,100225.23
2022-08-26T06:07:37.478Z,100221.36
2022-08-26T06:12:42.666Z,100218.20
2022-08-26T06:17:46.686Z,100225.40
2022-08-26T06:22:52.152Z,100227.61
2022-08-26T06:27:54.663Z,100231.02
2022-08-26T06:32:57.065Z,100225.54
2022-08-26T06:38:00.219Z,100225.85
2022-08-26T06:43:02.838Z,100235.13
2022-08-26T06:48:06.545Z,100225.61
2022-08-26T06:53:10.081Z,100231.63
2022-08-26T06:58:13.939Z,100231.51
2022-08-26T07:03:16.267Z,100238.92
2022-08-26T07:08:18.805Z,100233.16
2022-08-26T07:13:30.524Z,100239.79
2022-08-26T07:18:34.550Z,100237.67
2022-08-26T07:23:37.353Z,100239.55
2022-08-26T07:28:44.031Z,100240.83
2022-08-26T07:33:46.391Z,100233.27
2022-08-26T07:38:49.066Z,100237.19
2022-08-26T07:43:52.023Z,100240.59
2022-08-26T07:48:54.422Z,100236.40
2022-08-26T07:53:58.316Z,100238.85
2022-08-26T07:59:00.683Z,100238.80
2022-08-26T08:04:04.531Z,100241.41
2022-08-26T08:09:06.933Z,100244.39
2022-08-26T08:14:11.797Z,100240.49
2022-08-26T08:19:15.091Z,100241.39
2022-08-26T08:24:17.393Z,100235.23
2022-08-26T08:29:20.024Z,100225.86
2022-08-26T08:34:22.605Z,100219.89
2022-08-26T08:39:26.193Z,100215.84
2022-08-26T08:44:28.614Z,100216.20
2022-08-26T08:49:32.213Z,100213.02
2022-08-26T08:54:34.620Z,100212.77
2022-08-26T08:59:58.825Z,100215.60
2022-08-26T09:05:02.937Z,100211.20
2022-08-26T09:10:17.252Z,100211.39
2022-08-26T09:15:24.634Z,100214.36
2022-08-26T09:20:32.712Z,100216.08
2022-08-26T09:25:44.605Z,100213.87
2022-08-26T09:30:58.343Z,100211.60
2022-08-26T09:36:23.013Z,100208.86
2022-08-26T09:41:31.701Z,100202.45
2022-08-26T09:46:34.509Z,100198.73
2022-08-26T09:51:37.427Z,100191.34
2022-08-26T09:56:39.958Z,100195.55
2022-08-26T10:01:43.377Z,100188.82
2022-08-26T10:06:49.120Z,100189.48
2022-08-26T10:11:55.532Z,100194.05
2022-08-26T10:16:59.711Z,100190.64
2022-08-26T10:22:18.232Z,100188.55
2022-08-26T10:27:20.662Z,100186.11
2022-08-26T10:32:25.958Z,100192.71
2022-08-26T10:37:34.795Z,100183.06
2022-08-26T10:42:42.493Z,100179.42
2022-08-26T10:47:48.531Z,100188.45
2022-08-26T10:52:52.629Z,100180.13
2022-08-26T10:57:59.269Z,100175.77
2022-08-26T11:03:22.633Z,100167.20
2022-08-26T11:08:28.401Z,100160.91
2022-08-26T11:13:33.651Z,100155.95
2022-08-26T11:18:37.966Z,100149.62
2022-08-26T11:23:50.268Z,100142.77
2022-08-26T11:28:55.906Z,100137.93
2022-08-26T11:33:59.786Z,100133.89
2022-08-26T11:39:04.093Z,100130.14
2022-08-26T11:44:09.379Z,100127.73
2022-08-26T11:49:12.843Z,100125.92
2022-08-26T11:54:17.515Z,100119.50
2022-08-26T12:04:41.001Z,100117.27
2022-08-26T12:09:46.321Z,100111.15
2022-08-26T12:14:48.893Z,100106.80
2022-08-26T12:19:51.195Z,100098.98
2022-08-26T12:24:56.771Z,100092.35
2022-08-26T12:30:02.567Z,100081.95
2022-08-26T12:35:08.769Z,100079.25
2022-08-26T12:40:14.134Z,100075.18
2022-08-26T12:45:27.721Z,100067.46
2022-08-26T12:50:32.455Z,100069.70
2022-08-26T12:55:35.901Z,100065.95
2022-08-26T13:00:40.660Z,100054.65
2022-08-26T13:05:44.298Z,100047.00
2022-08-26T13:10:47.497Z,100041.59
2022-08-26T13:15:50.294Z,100037.20
2022-08-26T13:20:52.718Z,100030.83
2022-08-26T13:25:55.072Z,100025.95
2022-08-26T13:30:58.308Z,100025.73
2022-08-26T13:36:00.754Z,100024.39
2022-08-26T13:41:03.464Z,100016.85
2022-08-26T13:46:05.881Z,100021.88
2022-08-26T13:51:08.956Z,100020.15
2022-08-26T13:56:11.667Z,100009.09
2022-08-26T14:01:15.522Z,100007.08
2022-08-26T14:06:18.635Z,99999.19
2022-08-26T14:11:21.364Z,99991.16
2022-08-26T14:16:27.011Z,99979.74
2022-08-26T14:21:30.975Z,99974.73
2022-08-26T14:26:34.191Z,99972.16
2022-08-26T14:31:37.732Z,99958.77
2022-08-26T14:36:40.159Z,99959.80
2022-08-26T14:41:45.148Z,99956.95
2022-08-26T14:46:56.788Z,99950.30
2022-08-26T14:51:59.604Z,99950.52
2022-08-26T14:57:03.674Z,99950.80
2022-08-26T15:02:07.336Z,99944.94
2022-08-26T15:07:09.842Z,99948.50
2022-08-26T15:12:16.177Z,99948.73
2022-08-26T15:17:18.513Z,99949.09
2022-08-26T15:22:21.192Z,99950.89
2022-08-26T15:27:23.776Z,99936.77
2022-08-26T15:32:26.135Z,99933.27
2022-08-26T15:37:28.477Z,99935.05
2022-08-26T15:42:30.845Z,99927.58
2022-08-26T15:47:33.633Z,99921.86
2022-08-26T15:52:56.143Z,99916.80
2022-08-26T15:57:58.496Z,99914.29
2022-08-26T16:03:00.875Z,99914.19
2022-08-26T16:08:06.082Z,99901.73
2022-08-26T16:13:10.445Z,99903.59
2022-08-26T16:18:15.460Z,99895.47
2022-08-26T16:23:18.724Z,99887.92
2022-08-26T16:28:26.239Z,99879.95
2022-08-26T16:33:29.853Z,99877.25
2022-08-26T16:38:32.466Z,99866.33
2022-08-26T16:43:34.884Z,99866.75
2022-08-26T16:48:37.223Z,99852.95
2022-08-26T16:53:39.682Z,99856.16
2022-08-26T16:58:42.194Z,99858.39
2022-08-26T17:03:44.626Z,99853.77
2022-08-26T17:08:47.512Z,99859.09
2022-08-26T17:13:49.852Z,99863.09
2022-08-26T17:18:52.196Z,99858.80
2022-08-26T17:23:55.046Z,99855.99
2022-08-26T17:28:57.744Z,99860.76
2022-08-26T17:34:00.481Z,99864.48
2022-08-26T17:39:03.735Z,99865.59
2022-08-26T17:44:06.528Z,99864.04
2022-08-26T17:49:09.849Z,99866.20
2022-08-26T17:54:12.335Z,99869.69
2022-08-26T17:59:14.684Z,99877.21
2022-08-26T18:04:17.487Z,99878.10
2022-08-26T18:09:19.880Z,99881.27
2022-08-26T18:14:22.213Z,99887.08
2022-08-26T18:19:24.495Z,99892.40
2022-08-26T18:24:30.155Z,99894.27
2022-08-26T18:29:32.629Z,99891.90
2022-08-26T18:34:35.737Z,99892.22
2022-08-26T18:39:38.027Z,99904.42
2022-08-26T18:44:40.337Z,99913.14
2022-08-26T18:49:42.646Z,99911.80
2022-08-26T18:54:44.951Z,99917.39
2022-08-26T18:59:47.277Z,99917.70
2022-08-26T19:04:51.709Z,99924.60
2022-08-26T19:09:54.277Z,99929.76
2022-08-26T19:14:56.775Z,99925.83
2022-08-26T19:20:00.079Z,99922.91
2022-08-26T19:25:02.478Z,99919.42
2022-08-26T19:30:06.060Z,99926.38
2022-08-26T19:35:08.923Z,99934.05
2022-08-26T19:40:11.358Z,99933.19
2022-08-26T19:45:24.281Z,99933.34
2022-08-26T19:50:28.922Z,99940.69
2022-08-26T19:55:31.286Z,99940.23
2022-08-26T20:00:35.623Z,99951.13
2022-08-26T20:05:39.033Z,99949.75
2022-08-26T20:10:41.478Z,99944.73
2022-08-26T20:15:46.045Z,99950.01
2022-08-26T20:20:51.315Z,99952.13
2022-08-26T20:25:57.307Z,99942.17
2022-08-26T20:30:59.837Z,99947.48
2022-08-26T20:36:02.934Z,99953.65
2022-08-26T20:41:10.409Z,99951.15
2022-08-26T20:46:18.770Z,99950.08
2022-08-26T20:51:23.415Z,99949.88
2022-08-26T20:56:25.769Z,99946.20
2022-08-26T21:01:30.710Z,99942.45
2022-08-26T21:06:33.870Z,99939.86
2022-08-26T21:11:37.303Z,99936.13
2022-08-26T21:16:40.303Z,99935.39
2022-08-26T21:21:44.309Z,99932.75
2022-08-26T21:26:47.148Z,99930.86
2022-08-26T21:47:41.088Z,99931.67
2022-08-26T21:52:43.725Z,99936.27
2022-08-26T21:57:46.120Z,99937.42
2022-08-26T22:02:50.089Z,99930.59
2022-08-26T22:07:53.039Z,99932.65
2022-08-26T22:12:55.884Z,99928.67
2022-08-26T22:17:58.804Z,99930.20
2022-08-26T22:23:01.949Z,99929.41
2022-08-26T22:28:04.412Z,99935.20
2022-08-26T22:33:06.773Z,99935.91
2022-08-26T22:38:09.600Z,99932.60
2022-08-26T22:43:12.835Z,99934.30
2022-08-26T22:48:17.771Z,99934.61
2022-08-26T22:53:20.131Z,99932.70
2022-08-26T22:58:28.037Z,99932.71
2022-08-26T23:03:33.717Z,99929.95
2022-08-26T23:08:36.596Z,99920.13
2022-08-26T23:13:39.206Z,99915.01
2022-08-26T23:18:41.818Z,99908.20
2022-08-26T23:23:45.008Z,99911.20
2022-08-26T23:28:47.370Z,99916.30
2022-08-26T23:34:08.449Z,99909.23
2022-08-26T23:39:11.117Z,99902.89
2022-08-26T23:44:13.516Z,99901.70
2022-08-26T23:49:15.989Z,99898.04
2022-08-26T23:54:19.551Z,99894.15
2022-08-26T23:59:22.162Z,99889.45
